Time;durP1;ratioP1;P1;durP2;ratioP2;P2;SDS_P1;SDS_P2;PMS_P1;PMS_P2;Temp;Humidity;BMP_temperature;BMP_pressure;BME280_temperature;BME280_humidity;BME280_pressure;Samples;Min_cycle;Max_cycle;Signal;HPM_P1;HPM_P2
2020/07/20 00:01:32;;;;;;;3.25;2.63;;;;;;;21.55;64.10;100310.34;;;;-57
2020/07/20 00:07:32;;;;;;;2.81;2.53;;;;;;;21.53;64.11;100311.56;;;;-54
2020/07/20 00:12:32;;;;;;;2.70;2.50;;;;;;;21.53;64.14;100312.14;;;;-54
2020/07/20 00:17:31;;;;;;;2.67;2.43;;;;;;;21.52;64.13;100305.28;;;;-54
2020/07/20 00:20:32;;;;;;;3.41;2.52;;;;;;;21.51;64.15;100313.70;;;;-54
2020/07/20 00:29:58;;;;;;;2.92;2.31;;;;;;;21.50;64.12;100309.61;;;;-54
2020/07/20 00:34:58;;;;;;;2.55;2.35;;;;;;;21.49;64.15;100321.69;;;;-54
2020/07/20 00:41:58;;;;;;;2.98;2.42;;;;;;;21.48;64.25;100332.30;;;;-54
2020/07/20 00:45:58;;;;;;;2.97;2.39;;;;;;;21.48;64.14;100316.98;;;;-54
2020/07/20 00:49:58;;;;;;;2.83;2.50;;;;;;;21.48;64.18;100308.64;;;;-54
2020/07/20 00:54:58;;;;;;;3.01;2.59;;;;;;;21.47;64.23;100303.77;;;;-54
2020/07/20 00:59:58;;;;;;;2.60;2.40;;;;;;;21.46;64.21;100311.77;;;;-54
2020/07/20 01:05:58;;;;;;;2.87;2.62;;;;;;;21.46;64.26;100334.41;;;;-53
2020/07/20 01:08:58;;;;;;;3.24;2.61;;;;;;;21.45;64.15;100342.33;;;;-54
2020/07/20 01:13:58;;;;;;;3.71;2.43;;;;;;;21.45;64.22;100326.93;;;;-53
2020/07/20 01:17:58;;;;;;;2.77;2.44;;;;;;;21.44;64.20;100323.68;;;;-54
2020/07/20 01:22:58;;;;;;;3.13;2.48;;;;;;;21.44;64.18;100317.65;;;;-54
2020/07/20 01:26:58;;;;;;;2.71;2.44;;;;;;;21.43;64.16;100308.83;;;;-53
2020/07/20 01:31:58;;;;;;;2.47;2.27;;;;;;;21.43;64.21;100304.34;;;;-54
2020/07/20 01:35:58;;;;;;;2.59;2.39;;;;;;;21.42;64.20;100305.27;;;;-55
2020/07/20 01:45:24;;;;;;;2.61;2.30;;;;;;;21.42;64.21;100310.46;;;;-54
2020/07/20 01:51:24;;;;;;;2.69;2.27;;;;;;;21.41;64.16;100315.73;;;;-54
2020/07/20 01:56:24;;;;;;;2.60;2.40;;;;;;;21.40;64.26;100313.22;;;;-54
2020/07/20 02:01:24;;;;;;;2.48;2.28;;;;;;;21.40;64.23;100318.20;;;;-53
2020/07/20 02:05:24;;;;;;;2.57;2.34;;;;;;;21.40;64.29;100315.92;;;;-54
2020/07/20 02:10:25;;;;;;;4.06;2.49;;;;;;;21.39;64.24;100315.03;;;;-54
2020/07/20 02:16:24;;;;;;;2.51;2.31;;;;;;;21.39;64.26;100314.11;;;;-54
2020/07/20 02:20:24;;;;;;;2.77;2.43;;;;;;;21.39;64.25;100312.73;;;;-53
2020/07/20 02:24:25;;;;;;;2.29;2.10;;;;;;;21.39;64.25;100313.95;;;;-54
2020/07/20 02:28:25;;;;;;;2.75;2.50;;;;;;;21.38;64.14;100307.52;;;;-54
2020/07/20 02:32:24;;;;;;;2.60;2.40;;;;;;;21.38;64.19;100307.70;;;;-53
2020/07/20 02:41:51;;;;;;;2.46;2.26;;;;;;;21.37;64.25;100307.87;;;;-53
2020/07/20 02:44:51;;;;;;;2.38;2.18;;;;;;;21.37;64.18;100311.51;;;;-53
2020/07/20 02:54:17;;;;;;;2.56;2.36;;;;;;;21.36;64.23;100315.94;;;;-53
2020/07/20 02:59:16;;;;;;;2.53;2.33;;;;;;;21.36;64.26;100313.16;;;;-54
2020/07/20 03:05:16;;;;;;;2.65;2.45;;;;;;;21.35;64.23;100316.03;;;;-53
2020/07/20 03:09:17;;;;;;;2.63;2.25;;;;;;;21.35;64.27;100317.22;;;;-53
2020/07/20 03:14:16;;;;;;;2.61;2.41;;;;;;;21.35;64.24;100314.87;;;;-53
2020/07/20 03:23:43;;;;;;;2.73;2.53;;;;;;;21.33;64.31;100311.20;;;;-52
2020/07/20 03:27:43;;;;;;;2.69;2.47;;;;;;;21.33;64.29;100315.52;;;;-52
2020/07/20 03:32:43;;;;;;;2.54;2.34;;;;;;;21.33;64.26;100320.50;;;;-51
2020/07/20 03:36:43;;;;;;;2.34;2.17;;;;;;;21.32;64.34;100318.72;;;;-52
2020/07/20 03:41:43;;;;;;;2.42;2.22;;;;;;;21.32;64.25;100316.44;;;;-52
2020/07/20 03:45:43;;;;;;;2.43;2.22;;;;;;;21.31;64.21;100323.87;;;;-52
2020/07/20 03:49:43;;;;;;;2.93;2.31;;;;;;;21.31;64.32;100326.20;;;;-52
2020/07/20 03:53:43;;;;;;;2.70;2.50;;;;;;;21.31;64.27;100328.57;;;;-52
2020/07/20 03:57:43;;;;;;;2.54;2.30;;;;;;;21.30;64.25;100321.98;;;;-52
2020/07/20 04:00:43;;;;;;;2.48;2.28;;;;;;;21.30;64.25;100320.02;;;;-52
2020/07/20 04:05:43;;;;;;;2.43;2.23;;;;;;;21.31;64.26;100323.19;;;;-52
2020/07/20 04:10:43;;;;;;;2.45;2.25;;;;;;;21.29;64.24;100321.34;;;;-52
2020/07/20 04:13:43;;;;;;;2.52;2.32;;;;;;;21.29;64.32;100322.24;;;;-52
2020/07/20 04:17:43;;;;;;;2.54;2.34;;;;;;;21.29;64.23;100320.99;;;;-51
2020/07/20 04:20:43;;;;;;;2.39;2.19;;;;;;;21.28;64.20;100322.88;;;;-52
2020/07/20 04:24:43;;;;;;;2.36;2.16;;;;;;;21.29;64.33;100323.60;;;;-52
2020/07/20 04:28:43;;;;;;;2.50;2.30;;;;;;;21.28;64.23;100328.02;;;;-52
2020/07/20 04:32:43;;;;;;;2.88;2.20;;;;;;;21.27;64.25;100329.98;;;;-52
2020/07/20 04:37:43;;;;;;;2.59;2.34;;;;;;;21.27;64.20;100333.08;;;;-52
2020/07/20 04:40:43;;;;;;;2.40;2.20;;;;;;;21.26;64.25;100333.89;;;;-52
2020/07/20 04:43:43;;;;;;;2.50;2.30;;;;;;;21.27;64.35;100332.01;;;;-52
2020/07/20 04:48:43;;;;;;;2.51;2.31;;;;;;;21.27;64.24;100333.47;;;;-52
2020/07/20 04:52:43;;;;;;;2.48;2.28;;;;;;;21.26;64.31;100331.37;;;;-52
2020/07/20 04:57:43;;;;;;;2.39;2.20;;;;;;;21.26;64.29;100331.86;;;;-51
2020/07/20 05:00:43;;;;;;;2.32;2.12;;;;;;;21.26;64.25;100335.69;;;;-52
2020/07/20 05:04:43;;;;;;;2.34;2.14;;;;;;;21.25;64.31;100334.81;;;;-52
2020/07/20 05:07:43;;;;;;;2.38;2.18;;;;;;;21.26;64.25;100337.48;;;;-52
2020/07/20 05:10:43;;;;;;;2.51;2.31;;;;;;;21.25;64.28;100330.89;;;;-52
2020/07/20 05:13:43;;;;;;;5.77;3.70;;;;;;;21.25;64.50;100334.95;;;;-52
2020/07/20 05:16:43;;;;;;;8.51;4.87;;;;;;;21.16;63.99;100334.31;;;;-53
2020/07/20 05:19:43;;;;;;;5.07;4.67;;;;;;;21.05;64.08;100338.84;;;;-52
2020/07/20 05:22:43;;;;;;;6.09;4.60;;;;;;;20.98;64.28;100343.89;;;;-52
2020/07/20 05:25:43;;;;;;;6.16;4.82;;;;;;;20.95;64.43;100338.45;;;;-52
2020/07/20 05:28:43;;;;;;;5.58;4.98;;;;;;;20.89;64.21;100336.66;;;;-52
2020/07/20 05:31:43;;;;;;;5.76;4.78;;;;;;;20.82;64.25;100340.11;;;;-52
2020/07/20 05:34:43;;;;;;;7.90;4.59;;;;;;;20.84;64.35;100340.19;;;;-51
2020/07/20 05:37:43;;;;;;;6.40;4.59;;;;;;;20.89;64.35;100338.95;;;;-51
2020/07/20 05:40:43;;;;;;;5.00;4.49;;;;;;;20.93;64.29;100339.27;;;;-51
2020/07/20 05:43:43;;;;;;;4.80;4.40;;;;;;;20.95;64.15;100346.77;;;;-51
2020/07/20 05:46:43;;;;;;;5.15;4.33;;;;;;;20.97;64.01;100357.59;;;;-52
2020/07/20 05:49:43;;;;;;;6.33;4.21;;;;;;;20.98;64.05;100355.79;;;;-52
2020/07/20 05:52:43;;;;;;;4.55;4.15;;;;;;;21.00;64.08;100358.87;;;;-53
2020/07/20 05:55:43;;;;;;;5.55;4.22;;;;;;;21.01;63.99;100355.96;;;;-53
2020/07/20 05:58:43;;;;;;;4.73;4.33;;;;;;;21.02;64.15;100357.66;;;;-52
2020/07/20 06:01:43;;;;;;;4.49;4.07;;;;;;;21.02;64.30;100358.47;;;;-50
2020/07/20 06:04:43;;;;;;;5.43;4.81;;;;;;;20.96;66.07;100362.41;;;;-50
2020/07/20 06:07:43;;;;;;;5.39;4.75;;;;;;;20.94;66.29;100357.59;;;;-57
2020/07/20 06:10:43;;;;;;;5.35;4.85;;;;;;;20.92;67.10;100362.42;;;;-56
2020/07/20 06:13:43;;;;;;;6.41;5.12;;;;;;;20.93;67.39;100361.19;;;;-53
2020/07/20 06:16:43;;;;;;;5.58;5.00;;;;;;;20.91;67.58;100360.54;;;;-56
2020/07/20 06:19:43;;;;;;;5.29;4.89;;;;;;;20.88;67.57;100371.87;;;;-60
2020/07/20 06:22:43;;;;;;;6.07;5.12;;;;;;;20.87;67.90;100376.75;;;;-60
2020/07/20 06:25:43;;;;;;;5.77;5.27;;;;;;;20.85;67.68;100370.47;;;;-60
2020/07/20 06:28:43;;;;;;;5.45;4.55;;;;;;;20.86;67.55;100374.55;;;;-55
2020/07/20 06:31:43;;;;;;;7.21;4.94;;;;;;;20.89;67.45;100369.89;;;;-55
2020/07/20 06:34:43;;;;;;;5.05;4.60;;;;;;;20.93;67.21;100372.75;;;;-55
2020/07/20 06:37:43;;;;;;;5.89;4.49;;;;;;;20.97;66.86;100379.59;;;;-55
2020/07/20 06:40:43;;;;;;;6.77;4.48;;;;;;;20.99;66.64;100382.77;;;;-55
2020/07/20 06:43:43;;;;;;;4.73;4.33;;;;;;;21.01;66.50;100385.05;;;;-55
2020/07/20 06:46:43;;;;;;;4.64;4.23;;;;;;;21.02;66.39;100384.54;;;;-55
2020/07/20 06:49:43;;;;;;;4.45;4.04;;;;;;;21.04;66.33;100388.06;;;;-55
2020/07/20 06:52:43;;;;;;;4.53;4.13;;;;;;;21.06;66.12;100389.09;;;;-55
2020/07/20 06:55:43;;;;;;;4.50;4.09;;;;;;;21.07;66.13;100390.34;;;;-55
2020/07/20 06:58:43;;;;;;;4.39;3.99;;;;;;;21.07;65.99;100390.91;;;;-55
2020/07/20 07:01:43;;;;;;;4.35;3.95;;;;;;;21.08;65.90;100385.62;;;;-50
2020/07/20 07:04:43;;;;;;;4.63;4.01;;;;;;;21.09;65.87;100383.81;;;;-50
2020/07/20 07:07:43;;;;;;;4.27;3.89;;;;;;;21.10;65.84;100382.08;;;;-50
2020/07/20 07:10:43;;;;;;;4.97;3.90;;;;;;;21.10;65.78;100386.16;;;;-50
2020/07/20 07:13:43;;;;;;;4.22;3.82;;;;;;;21.12;65.70;100389.34;;;;-51
2020/07/20 07:16:43;;;;;;;4.24;3.88;;;;;;;21.12;65.62;100387.39;;;;-50
2020/07/20 07:19:43;;;;;;;3.95;3.60;;;;;;;21.12;65.56;100385.99;;;;-51
2020/07/20 07:22:43;;;;;;;4.93;3.91;;;;;;;21.12;65.55;100382.73;;;;-50
2020/07/20 07:25:43;;;;;;;3.87;3.57;;;;;;;21.13;65.49;100388.05;;;;-49
2020/07/20 07:28:43;;;;;;;4.45;3.60;;;;;;;21.14;65.49;100386.16;;;;-50
2020/07/20 07:31:43;;;;;;;3.95;3.63;;;;;;;21.13;65.46;100387.80;;;;-50
2020/07/20 07:34:43;;;;;;;4.01;3.70;;;;;;;21.14;65.40;100391.45;;;;-50
2020/07/20 07:37:43;;;;;;;6.85;3.94;;;;;;;21.15;65.43;100393.75;;;;-61
2020/07/20 07:40:43;;;;;;;3.95;3.61;;;;;;;21.16;65.36;100390.72;;;;-58
2020/07/20 07:43:43;;;;;;;4.72;3.81;;;;;;;21.17;65.34;100391.38;;;;-57
2020/07/20 07:46:43;;;;;;;7.59;4.04;;;;;;;21.18;65.35;100389.16;;;;-58
2020/07/20 07:49:43;;;;;;;5.82;3.89;;;;;;;21.20;65.45;100389.98;;;;-55
2020/07/20 07:52:43;;;;;;;13.96;4.16;;;;;;;21.22;65.44;100389.16;;;;-57
2020/07/20 07:55:43;;;;;;;5.35;3.86;;;;;;;21.24;65.62;100389.08;;;;-55
2020/07/20 07:58:43;;;;;;;5.48;3.61;;;;;;;21.24;65.64;100388.66;;;;-50
2020/07/20 08:01:43;;;;;;;7.04;3.73;;;;;;;21.26;65.66;100389.40;;;;-57
2020/07/20 08:04:43;;;;;;;4.65;3.61;;;;;;;21.26;65.70;100393.88;;;;-51
2020/07/20 08:07:43;;;;;;;5.56;3.89;;;;;;;21.28;65.69;100399.25;;;;-58
2020/07/20 08:10:44;;;;;;;4.16;3.40;;;;;;;21.30;65.58;100399.50;;;;-62
2020/07/20 08:13:43;;;;;;;4.17;3.59;;;;;;;21.30;65.44;100400.89;;;;-51
2020/07/20 08:16:43;;;;;;;6.91;3.69;;;;;;;21.30;65.64;100402.19;;;;-50
2020/07/20 08:19:43;;;;;;;5.63;3.41;;;;;;;21.30;65.55;100410.01;;;;-51
2020/07/20 08:22:43;;;;;;;4.69;3.73;;;;;;;21.31;65.44;100419.45;;;;-49
2020/07/20 08:25:43;;;;;;;4.64;3.55;;;;;;;21.31;65.39;100420.55;;;;-49
2020/07/20 08:30:43;;;;;;;6.66;3.73;;;;;;;21.33;65.39;100419.30;;;;-52
2020/07/20 08:35:43;;;;;;;4.96;3.51;;;;;;;21.34;65.28;100419.05;;;;-51
2020/07/20 08:38:43;;;;;;;8.66;3.67;;;;;;;21.37;65.41;100420.50;;;;-59
2020/07/20 08:43:43;;;;;;;6.75;3.57;;;;;;;21.38;65.34;100416.36;;;;-56
2020/07/20 08:48:43;;;;;;;4.45;3.42;;;;;;;21.39;65.25;100416.99;;;;-55
2020/07/20 08:52:43;;;;;;;7.99;3.37;;;;;;;21.40;65.46;100421.66;;;;-54
2020/07/20 08:57:43;;;;;;;5.72;3.69;;;;;;;21.43;65.36;100427.95;;;;-57
2020/07/20 09:01:43;;;;;;;6.36;3.53;;;;;;;21.44;65.38;100421.60;;;;-52
2020/07/20 09:07:43;;;;;;;5.00;3.47;;;;;;;21.46;65.31;100418.73;;;;-57
2020/07/20 09:12:43;;;;;;;4.84;3.30;;;;;;;21.47;65.37;100418.89;;;;-51
2020/07/20 09:16:43;;;;;;;8.82;3.61;;;;;;;21.49;65.40;100420.52;;;;-51
2020/07/20 09:21:43;;;;;;;6.25;3.57;;;;;;;21.50;65.24;100426.53;;;;-50
2020/07/20 09:24:43;;;;;;;5.45;3.23;;;;;;;21.51;65.29;100422.63;;;;-58
2020/07/20 09:27:43;;;;;;;3.98;3.36;;;;;;;21.51;65.27;100423.36;;;;-51
2020/07/20 09:32:43;;;;;;;6.83;3.61;;;;;;;21.52;65.23;100420.98;;;;-60
2020/07/20 09:35:43;;;;;;;6.19;3.42;;;;;;;21.52;65.34;100418.48;;;;-54
2020/07/20 09:38:43;;;;;;;3.71;3.29;;;;;;;21.53;65.34;100417.98;;;;-57
2020/07/20 09:41:43;;;;;;;6.98;3.51;;;;;;;21.54;65.17;100423.34;;;;-58
2020/07/20 09:44:43;;;;;;;5.62;3.30;;;;;;;21.54;65.22;100428.17;;;;-52
2020/07/20 09:47:43;;;;;;;5.93;3.19;;;;;;;21.56;65.50;100433.64;;;;-63
2020/07/20 09:50:43;;;;;;;4.63;3.37;;;;;;;21.56;65.12;100435.81;;;;-53
2020/07/20 09:53:43;;;;;;;7.30;3.50;;;;;;;21.56;65.22;100431.98;;;;-53
2020/07/20 09:57:43;;;;;;;5.61;3.18;;;;;;;21.56;65.12;100429.05;;;;-51
2020/07/20 10:00:43;;;;;;;5.23;3.63;;;;;;;21.56;65.08;100429.94;;;;-52
2020/07/20 10:03:43;;;;;;;6.12;3.31;;;;;;;21.55;64.95;100432.81;;;;-54
2020/07/20 10:06:43;;;;;;;6.09;3.16;;;;;;;21.55;64.95;100433.46;;;;-53
2020/07/20 10:10:43;;;;;;;4.30;3.23;;;;;;;21.55;64.85;100436.89;;;;-53
2020/07/20 10:14:43;;;;;;;4.39;3.09;;;;;;;21.55;64.93;100437.39;;;;-53
2020/07/20 10:17:43;;;;;;;5.36;2.97;;;;;;;21.55;64.75;100438.69;;;;-54
2020/07/20 10:22:43;;;;;;;5.53;3.09;;;;;;;21.55;64.81;100438.69;;;;-52
2020/07/20 10:32:09;;;;;;;3.57;3.11;;;;;;;21.54;64.63;100444.33;;;;-53
2020/07/20 10:38:09;;;;;;;5.20;3.08;;;;;;;21.55;64.60;100437.63;;;;-53
2020/07/20 10:43:09;;;;;;;4.13;3.20;;;;;;;21.54;64.65;100437.80;;;;-53
2020/07/20 10:52:35;;;;;;;4.93;2.97;;;;;;;21.56;64.69;100436.14;;;;-56
2020/07/20 10:57:35;;;;;;;4.84;3.03;;;;;;;21.56;64.75;100435.92;;;;-52
2020/07/20 11:03:35;;;;;;;5.12;3.21;;;;;;;21.57;64.71;100424.83;;;;-52
2020/07/20 11:06:35;;;;;;;3.91;2.97;;;;;;;21.57;64.71;100426.37;;;;-52
2020/07/20 11:10:35;;;;;;;4.59;3.38;;;;;;;21.57;64.64;100425.97;;;;-52
2020/07/20 11:14:35;;;;;;;3.81;2.84;;;;;;;21.58;64.67;100423.83;;;;-52
2020/07/20 11:19:35;;;;;;;4.03;2.99;;;;;;;21.56;64.64;100422.38;;;;-52
2020/07/20 11:23:35;;;;;;;4.45;3.13;;;;;;;21.57;64.48;100412.02;;;;-52
2020/07/20 11:29:35;;;;;;;3.98;2.89;;;;;;;21.57;64.63;100416.18;;;;-52
2020/07/20 11:33:35;;;;;;;4.94;3.16;;;;;;;21.57;64.49;100406.07;;;;-52
2020/07/20 11:37:35;;;;;;;4.41;2.84;;;;;;;21.55;64.58;100402.64;;;;-51
2020/07/20 11:42:36;;;;;;;3.20;2.81;;;;;;;21.56;64.42;100405.64;;;;-52
2020/07/20 11:46:35;;;;;;;10.51;3.20;;;;;;;21.56;64.49;100405.42;;;;-53
2020/07/20 11:50:35;;;;;;;4.06;2.89;;;;;;;21.55;64.48;100401.01;;;;-55
2020/07/20 11:54:36;;;;;;;3.99;2.89;;;;;;;21.55;64.60;100395.88;;;;-54
2020/07/20 11:58:35;;;;;;;4.81;2.89;;;;;;;21.56;64.52;100388.52;;;;-57
2020/07/20 12:04:36;;;;;;;5.47;3.10;;;;;;;21.60;64.80;100391.06;;;;-54
2020/07/20 12:08:35;;;;;;;7.59;3.15;;;;;;;21.63;64.95;100384.27;;;;-55
2020/07/20 12:13:35;;;;;;;6.06;3.04;;;;;;;21.66;64.83;100378.86;;;;-51
2020/07/20 12:17:36;;;;;;;6.23;3.23;;;;;;;21.66;64.81;100380.89;;;;-60
2020/07/20 12:22:36;;;;;;;7.67;3.03;;;;;;;21.68;64.78;100371.91;;;;-54
2020/07/20 12:26:35;;;;;;;8.38;3.07;;;;;;;21.70;64.87;100371.25;;;;-52
2020/07/20 12:36:02;;;;;;;7.99;3.20;;;;;;;21.74;64.90;100370.83;;;;-57
2020/07/20 12:42:01;;;;;;;8.19;3.26;;;;;;;21.76;65.04;100376.70;;;;-59
2020/07/20 12:46:02;;;;;;;8.14;2.89;;;;;;;21.77;65.04;100375.56;;;;-59
2020/07/20 12:55:28;;;;;;;7.25;2.85;;;;;;;21.83;65.06;100378.63;;;;-54
2020/07/20 12:58:28;;;;;;;5.64;3.12;;;;;;;21.84;65.05;100378.05;;;;-58
2020/07/20 13:04:28;;;;;;;8.45;3.35;;;;;;;21.86;65.00;100375.93;;;;-54
2020/07/20 13:08:27;;;;;;;10.10;3.09;;;;;;;21.87;65.06;100372.66;;;;-52
2020/07/20 13:11:28;;;;;;;6.80;3.11;;;;;;;21.88;65.08;100373.39;;;;-56
2020/07/20 13:16:28;;;;;;;11.12;3.14;;;;;;;21.90;65.03;100371.09;;;;-50
2020/07/20 13:19:28;;;;;;;10.43;3.07;;;;;;;21.90;65.02;100366.59;;;;-50
2020/07/20 13:22:27;;;;;;;6.67;2.88;;;;;;;21.91;65.06;100364.70;;;;-51
2020/07/20 13:25:28;;;;;;;5.91;2.92;;;;;;;21.92;64.95;100364.39;;;;-51
2020/07/20 13:28:28;;;;;;;8.49;3.05;;;;;;;21.95;64.95;100363.64;;;;-57
2020/07/20 13:31:28;;;;;;;9.89;3.10;;;;;;;21.94;64.93;100362.02;;;;-57
2020/07/20 13:34:27;;;;;;;8.35;3.16;;;;;;;21.95;65.31;100359.72;;;;-57
2020/07/20 13:37:27;;;;;;;14.11;3.22;;;;;;;21.96;65.03;100363.56;;;;-58
2020/07/20 13:40:28;;;;;;;11.25;3.01;;;;;;;21.97;65.10;100367.05;;;;-57
2020/07/20 13:43:28;;;;;;;8.09;3.05;;;;;;;21.97;65.01;100363.13;;;;-58
2020/07/20 13:46:28;;;;;;;7.76;3.03;;;;;;;21.97;65.00;100369.24;;;;-59
2020/07/20 13:49:28;;;;;;;6.53;3.03;;;;;;;21.99;64.91;100377.00;;;;-51
2020/07/20 13:52:28;;;;;;;8.21;2.92;;;;;;;21.99;65.02;100381.56;;;;-59
2020/07/20 13:55:27;;;;;;;10.19;3.13;;;;;;;22.00;64.92;100381.98;;;;-59
2020/07/20 13:58:28;;;;;;;8.00;3.13;;;;;;;22.00;64.94;100393.56;;;;-58
2020/07/20 14:01:28;;;;;;;6.90;2.99;;;;;;;22.00;64.88;100391.45;;;;-67
2020/07/20 14:04:27;;;;;;;8.38;2.91;;;;;;;22.00;64.88;100375.38;;;;-67
2020/07/20 14:07:28;;;;;;;14.83;2.86;;;;;;;21.99;64.83;100361.89;;;;-67
2020/07/20 14:10:28;;;;;;;8.53;2.85;;;;;;;21.98;64.75;100356.86;;;;-67
2020/07/20 14:13:28;;;;;;;7.18;2.87;;;;;;;21.97;64.68;100365.41;;;;-67
2020/07/20 14:16:28;;;;;;;7.30;3.25;;;;;;;21.97;64.74;100367.78;;;;-67
2020/07/20 14:19:28;;;;;;;7.74;3.00;;;;;;;21.96;64.84;100375.06;;;;-57
2020/07/20 14:22:27;;;;;;;10.43;3.15;;;;;;;21.96;64.67;100381.59;;;;-68
2020/07/20 14:25:28;;;;;;;9.17;2.93;;;;;;;21.98;64.67;100374.90;;;;-58
2020/07/20 14:28:28;;;;;;;12.66;3.35;;;;;;;21.99;64.72;100365.90;;;;-61
2020/07/20 14:31:27;;;;;;;7.51;2.94;;;;;;;21.99;64.69;100361.49;;;;-59
2020/07/20 14:34:28;;;;;;;10.83;3.03;;;;;;;21.98;64.69;100359.56;;;;-50
2020/07/20 14:37:28;;;;;;;6.20;3.11;;;;;;;21.99;64.73;100362.14;;;;-55
2020/07/20 14:40:28;;;;;;;5.55;3.12;;;;;;;22.00;64.75;100357.09;;;;-56
2020/07/20 14:43:28;;;;;;;5.49;3.07;;;;;;;22.00;64.66;100356.36;;;;-54
2020/07/20 14:46:27;;;;;;;8.65;2.92;;;;;;;22.01;64.69;100344.84;;;;-56
2020/07/20 14:49:27;;;;;;;6.06;3.04;;;;;;;21.99;64.80;100336.27;;;;-53
2020/07/20 14:52:28;;;;;;;6.22;3.01;;;;;;;22.02;64.69;100346.48;;;;-54
2020/07/20 14:55:28;;;;;;;7.21;3.01;;;;;;;22.02;64.67;100342.39;;;;-50
2020/07/20 14:58:27;;;;;;;5.99;2.95;;;;;;;22.02;64.53;100338.23;;;;-51
2020/07/20 15:01:28;;;;;;;4.57;2.81;;;;;;;22.01;64.56;100332.42;;;;-51
2020/07/20 15:04:28;;;;;;;5.96;2.94;;;;;;;21.99;64.52;100331.13;;;;-51
2020/07/20 15:07:28;;;;;;;4.73;2.94;;;;;;;21.98;64.74;100325.60;;;;-49
2020/07/20 15:10:28;;;;;;;8.90;2.89;;;;;;;21.97;64.68;100337.76;;;;-51
2020/07/20 15:13:27;;;;;;;10.71;3.27;;;;;;;21.97;64.58;100337.68;;;;-58
2020/07/20 15:16:28;;;;;;;4.38;2.74;;;;;;;21.97;64.53;100343.80;;;;-58
2020/07/20 15:19:28;;;;;;;7.13;3.01;;;;;;;21.97;64.54;100341.02;;;;-54
2020/07/20 15:22:28;;;;;;;6.06;2.97;;;;;;;21.97;64.59;100350.07;;;;-53
2020/07/20 15:25:28;;;;;;;8.85;3.01;;;;;;;21.97;64.55;100355.70;;;;-53
2020/07/20 15:28:27;;;;;;;6.09;2.85;;;;;;;21.96;64.64;100369.85;;;;-53
2020/07/20 15:31:28;;;;;;;5.57;2.86;;;;;;;21.96;64.66;100388.78;;;;-54
2020/07/20 15:34:28;;;;;;;11.21;3.07;;;;;;;21.96;64.58;100399.37;;;;-53
2020/07/20 15:38:28;;;;;;;12.33;3.31;;;;;;;21.96;64.87;100402.16;;;;-61
2020/07/20 15:41:28;;;;;;;9.77;3.17;;;;;;;21.96;64.74;100394.48;;;;-52
2020/07/20 15:44:28;;;;;;;27.05;3.83;;;;;;;21.99;64.98;100385.48;;;;-53
2020/07/20 15:47:27;;;;;;;12.03;3.33;;;;;;;21.98;64.88;100371.30;;;;-56
2020/07/20 15:50:27;;;;;;;11.44;3.31;;;;;;;21.99;64.83;100363.84;;;;-59
2020/07/20 15:53:28;;;;;;;12.79;3.33;;;;;;;21.99;64.89;100360.92;;;;-56
2020/07/20 15:56:28;;;;;;;10.99;3.17;;;;;;;22.00;64.92;100364.28;;;;-61
2020/07/20 15:59:28;;;;;;;11.35;3.09;;;;;;;22.00;64.86;100357.81;;;;-58
2020/07/20 16:02:27;;;;;;;8.91;3.15;;;;;;;22.00;64.93;100353.73;;;;-51
2020/07/20 16:05:27;;;;;;;13.39;3.15;;;;;;;21.99;64.71;100348.34;;;;-51
2020/07/20 16:08:28;;;;;;;9.00;3.02;;;;;;;21.98;64.79;100350.25;;;;-51
2020/07/20 16:11:28;;;;;;;10.52;3.01;;;;;;;21.98;64.79;100346.49;;;;-51
2020/07/20 16:14:28;;;;;;;9.41;3.00;;;;;;;21.96;64.70;100340.05;;;;-51
2020/07/20 16:17:28;;;;;;;8.75;3.17;;;;;;;21.96;64.82;100342.44;;;;-51
2020/07/20 16:20:27;;;;;;;6.60;3.04;;;;;;;21.95;64.72;100338.25;;;;-51
2020/07/20 16:23:27;;;;;;;9.36;3.17;;;;;;;21.93;64.70;100341.20;;;;-51
2020/07/20 16:26:28;;;;;;;11.05;3.27;;;;;;;21.94;64.77;100337.30;;;;-51
2020/07/20 16:29:28;;;;;;;8.36;2.75;;;;;;;21.93;64.69;100337.04;;;;-51
2020/07/20 16:32:28;;;;;;;10.84;3.04;;;;;;;21.93;64.72;100336.47;;;;-51
2020/07/20 16:35:28;;;;;;;8.31;2.90;;;;;;;21.92;64.72;100331.52;;;;-51
2020/07/20 16:38:27;;;;;;;7.89;2.91;;;;;;;21.92;64.67;100335.51;;;;-51
2020/07/20 16:41:27;;;;;;;12.93;3.21;;;;;;;21.92;64.64;100329.48;;;;-51
2020/07/20 16:44:27;;;;;;;5.49;2.84;;;;;;;21.91;64.66;100332.48;;;;-50
2020/07/20 16:47:27;;;;;;;8.67;2.94;;;;;;;21.90;64.66;100337.40;;;;-51
2020/07/20 16:50:28;;;;;;;6.08;2.97;;;;;;;21.89;64.77;100336.10;;;;-52
2020/07/20 16:53:28;;;;;;;6.79;2.70;;;;;;;21.91;64.73;100339.59;;;;-51
2020/07/20 16:56:28;;;;;;;7.65;3.09;;;;;;;21.93;64.80;100340.97;;;;-56
2020/07/20 16:59:27;;;;;;;7.97;2.90;;;;;;;21.93;64.83;100349.53;;;;-57
2020/07/20 17:02:27;;;;;;;6.19;3.21;;;;;;;21.93;64.91;100347.97;;;;-57
2020/07/20 17:05:27;;;;;;;7.81;2.80;;;;;;;21.92;64.82;100351.17;;;;-56
2020/07/20 17:08:27;;;;;;;5.55;2.83;;;;;;;21.91;64.80;100351.48;;;;-57
2020/07/20 17:11:28;;;;;;;6.13;2.79;;;;;;;21.91;64.76;100357.70;;;;-56
2020/07/20 17:14:28;;;;;;;6.77;2.99;;;;;;;21.90;64.73;100355.42;;;;-57
2020/07/20 17:17:27;;;;;;;7.02;2.83;;;;;;;21.89;64.87;100353.45;;;;-56
2020/07/20 17:20:28;;;;;;;7.72;2.84;;;;;;;21.89;64.71;100354.88;;;;-56
2020/07/20 17:23:27;;;;;;;11.22;3.05;;;;;;;21.90;64.75;100355.84;;;;-61
2020/07/20 17:26:27;;;;;;;7.58;2.81;;;;;;;21.92;64.94;100355.52;;;;-57
2020/07/20 17:29:27;;;;;;;8.25;3.12;;;;;;;21.93;65.05;100355.16;;;;-55
2020/07/20 17:32:28;;;;;;;12.59;2.98;;;;;;;21.93;65.16;100358.92;;;;-58
2020/07/20 17:35:28;;;;;;;8.95;2.88;;;;;;;21.93;65.03;100361.44;;;;-57
2020/07/20 17:38:28;;;;;;;6.37;3.10;;;;;;;21.93;64.95;100372.37;;;;-57
2020/07/20 17:41:27;;;;;;;11.18;3.37;;;;;;;21.92;65.14;100373.13;;;;-65
2020/07/20 17:44:37;;;;;;;7.99;3.01;;;;;;;21.95;65.10;100374.40;;;;-50
2020/07/20 17:47:27;;;;;;;8.29;2.88;;;;;;;21.95;65.08;100380.03;;;;-50
2020/07/20 17:50:28;;;;;;;6.83;3.21;;;;;;;21.96;65.16;100380.86;;;;-50
2020/07/20 17:53:27;;;;;;;6.11;2.95;;;;;;;21.95;65.12;100386.23;;;;-49
2020/07/20 17:56:27;;;;;;;8.67;3.14;;;;;;;21.94;65.15;100385.75;;;;-50
2020/07/20 17:59:27;;;;;;;7.15;2.94;;;;;;;21.94;65.15;100391.95;;;;-50
2020/07/20 18:02:27;;;;;;;8.17;3.13;;;;;;;21.93;64.94;100394.56;;;;-50
2020/07/20 18:05:27;;;;;;;4.69;3.02;;;;;;;21.93;64.92;100398.56;;;;-50
2020/07/20 18:08:28;;;;;;;8.31;3.13;;;;;;;21.92;65.01;100398.17;;;;-50
2020/07/20 18:11:28;;;;;;;8.00;2.93;;;;;;;21.93;64.92;100399.47;;;;-49
2020/07/20 18:14:28;;;;;;;5.07;3.11;;;;;;;21.92;64.93;100399.89;;;;-54
2020/07/20 18:17:27;;;;;;;6.99;3.05;;;;;;;21.92;64.74;100401.84;;;;-54
2020/07/20 18:20:27;;;;;;;4.51;2.91;;;;;;;21.92;64.73;100401.69;;;;-54
2020/07/20 18:23:28;;;;;;;6.06;2.80;;;;;;;21.92;64.80;100410.25;;;;-54
2020/07/20 18:26:27;;;;;;;5.85;2.83;;;;;;;21.91;64.80;100415.78;;;;-53
2020/07/20 18:29:28;;;;;;;5.17;3.01;;;;;;;21.92;64.79;100421.43;;;;-54
2020/07/20 18:32:28;;;;;;;7.08;2.87;;;;;;;21.92;64.76;100432.38;;;;-53
2020/07/20 18:35:27;;;;;;;4.95;2.96;;;;;;;21.91;64.72;100433.56;;;;-54
2020/07/20 18:38:28;;;;;;;5.83;2.68;;;;;;;21.91;64.72;100441.41;;;;-54
2020/07/20 18:41:27;;;;;;;9.61;2.91;;;;;;;21.91;64.72;100444.84;;;;-54
2020/07/20 18:44:27;;;;;;;3.77;2.70;;;;;;;21.91;64.73;100447.27;;;;-53
2020/07/20 18:47:28;;;;;;;5.65;2.84;;;;;;;21.90;64.68;100452.84;;;;-53
2020/07/20 18:50:28;;;;;;;3.23;2.75;;;;;;;21.90;64.69;100455.55;;;;-53
2020/07/20 18:53:27;;;;;;;4.94;2.87;;;;;;;21.90;64.75;100453.34;;;;-54
2020/07/20 18:56:27;;;;;;;5.97;2.71;;;;;;;21.91;64.81;100465.73;;;;-52
2020/07/20 18:59:27;;;;;;;5.01;2.89;;;;;;;21.92;64.66;100464.69;;;;-51
2020/07/20 19:02:27;;;;;;;5.44;3.02;;;;;;;21.93;64.67;100466.45;;;;-52
2020/07/20 19:05:29;;;;;;;5.86;3.14;;;;;;;21.93;64.67;100465.64;;;;-51
2020/07/20 19:08:27;;;;;;;6.30;3.01;;;;;;;21.96;64.78;100471.03;;;;-54
2020/07/20 19:11:27;;;;;;;4.77;3.05;;;;;;;21.96;64.75;100472.33;;;;-52
2020/07/20 19:14:27;;;;;;;4.94;3.30;;;;;;;21.98;64.72;100478.36;;;;-49
2020/07/20 19:17:28;;;;;;;5.29;3.32;;;;;;;21.98;64.59;100483.02;;;;-57
2020/07/20 19:20:27;;;;;;;4.05;3.15;;;;;;;21.97;64.63;100484.06;;;;-57
2020/07/20 19:23:27;;;;;;;4.23;3.29;;;;;;;21.96;64.73;100487.09;;;;-57
2020/07/20 19:26:27;;;;;;;4.88;3.25;;;;;;;21.96;64.69;100494.20;;;;-57
2020/07/20 19:29:28;;;;;;;5.11;3.32;;;;;;;21.95;64.63;100497.85;;;;-57
2020/07/20 19:32:27;;;;;;;6.32;3.33;;;;;;;21.95;64.65;100502.10;;;;-57
2020/07/20 19:35:27;;;;;;;4.99;2.84;;;;;;;21.95;64.70;100510.35;;;;-57
2020/07/20 19:38:27;;;;;;;4.10;3.25;;;;;;;21.93;64.65;100511.81;;;;-51
2020/07/20 19:41:27;;;;;;;5.01;3.18;;;;;;;21.93;64.78;100520.22;;;;-56
2020/07/20 19:44:27;;;;;;;5.05;3.35;;;;;;;21.96;64.67;100527.66;;;;-54
2020/07/20 19:47:27;;;;;;;6.43;3.42;;;;;;;21.97;64.71;100535.14;;;;-54
2020/07/20 19:50:28;;;;;;;4.76;3.31;;;;;;;21.97;64.77;100540.44;;;;-58
2020/07/20 19:53:27;;;;;;;5.77;3.52;;;;;;;21.99;64.80;100543.30;;;;-53
2020/07/20 19:56:27;;;;;;;6.61;3.41;;;;;;;22.00;64.85;100546.98;;;;-56
2020/07/20 19:59:27;;;;;;;7.22;3.43;;;;;;;22.01;64.80;100549.41;;;;-55
2020/07/20 20:02:27;;;;;;;5.66;3.53;;;;;;;22.02;64.73;100555.14;;;;-55
2020/07/20 20:05:28;;;;;;;5.33;3.49;;;;;;;22.02;64.76;100561.34;;;;-55
2020/07/20 20:08:28;;;;;;;5.23;3.35;;;;;;;22.02;64.73;100569.42;;;;-51
2020/07/20 20:11:27;;;;;;;8.85;3.73;;;;;;;22.02;64.93;100572.44;;;;-58
2020/07/20 20:14:27;;;;;;;6.15;3.64;;;;;;;22.04;64.89;100574.56;;;;-59